sensor_id;sensor_type;location;lat;lon;timestamp;pressure;altitude;pressure_sealevel;temperature;humidity
70968;BME280;58629;48.808;8.820;2022-12-24T00:00:13;96590.03;;;9.99;84.67
70968;BME280;58629;48.808;8.820;2022-12-24T00:02:38;96594.66;;;9.95;85.38
70968;BME280;58629;48.808;8.820;2022-12-24T00:05:04;96580.38;;;9.92;85.33
70968;BME280;58629;48.808;8.820;2022-12-24T00:07:30;96594.56;;;9.98;85.20
70968;BME280;58629;48.808;8.820;2022-12-24T00:09:55;96600.84;;;10.04;84.03
70968;BME280;58629;48.808;8.820;2022-12-24T00:12:21;96598.28;;;10.01;85.64
70968;BME280;58629;48.808;8.820;2022-12-24T00:14:46;96617.66;;;9.98;85.67
70968;BME280;58629;48.808;8.820;2022-12-24T00:17:12;96614.59;;;9.99;84.53
70968;BME280;58629;48.808;8.820;2022-12-24T00:19:38;96599.22;;;9.94;85.82
70968;BME280;58629;48.808;8.820;2022-12-24T00:22:07;96600.56;;;9.86;86.05
70968;BME280;58629;48.808;8.820;2022-12-24T00:24:32;96607.72;;;9.86;85.76
70968;BME280;58629;48.808;8.820;2022-12-24T00:26:58;96610.72;;;9.88;86.29
70968;BME280;58629;48.808;8.820;2022-12-24T00:29:23;96612.28;;;9.85;86.40
70968;BME280;58629;48.808;8.820;2022-12-24T00:31:48;96589.97;;;9.86;86.86
70968;BME280;58629;48.808;8.820;2022-12-24T00:34:13;96593.09;;;9.81;86.68
70968;BME280;58629;48.808;8.820;2022-12-24T00:36:39;96598.16;;;9.76;86.51
70968;BME280;58629;48.808;8.820;2022-12-24T00:39:04;96594.75;;;9.75;86.41
70968;BME280;58629;48.808;8.820;2022-12-24T00:41:29;96595.72;;;9.65;87.48
70968;BME280;58629;48.808;8.820;2022-12-24T00:43:57;96603.00;;;9.61;87.50
70968;BME280;58629;48.808;8.820;2022-12-24T00:46:24;96616.56;;;9.63;87.68
70968;BME280;58629;48.808;8.820;2022-12-24T00:48:50;96620.38;;;9.62;87.23
70968;BME280;58629;48.808;8.820;2022-12-24T00:51:16;96621.03;;;9.66;87.52
70968;BME280;58629;48.808;8.820;2022-12-24T00:53:41;96626.06;;;9.60;87.91
70968;BME280;58629;48.808;8.820;2022-12-24T00:56:06;96626.47;;;9.59;88.08
70968;BME280;58629;48.808;8.820;2022-12-24T00:58:32;96631.03;;;9.58;88.37
70968;BME280;58629;48.808;8.820;2022-12-24T01:00:57;96633.66;;;9.58;87.96
70968;BME280;58629;48.808;8.820;2022-12-24T01:03:22;96642.41;;;9.55;88.84
70968;BME280;58629;48.808;8.820;2022-12-24T01:05:58;96643.63;;;9.51;88.54
70968;BME280;58629;48.808;8.820;2022-12-24T01:08:23;96645.53;;;9.50;89.04
70968;BME280;58629;48.808;8.820;2022-12-24T01:10:48;96667.34;;;9.54;89.37
70968;BME280;58629;48.808;8.820;2022-12-24T01:13:14;96661.72;;;9.52;90.03
70968;BME280;58629;48.808;8.820;2022-12-24T01:15:39;96673.09;;;9.49;90.71
70968;BME280;58629;48.808;8.820;2022-12-24T01:18:04;96676.59;;;9.46;90.92
70968;BME280;58629;48.808;8.820;2022-12-24T01:20:29;96687.53;;;9.45;92.25
70968;BME280;58629;48.808;8.820;2022-12-24T01:22:57;96720.59;;;9.53;92.48
70968;BME280;58629;48.808;8.820;2022-12-24T01:25:22;96728.75;;;9.42;94.92
70968;BME280;58629;48.808;8.820;2022-12-24T01:27:47;96725.84;;;9.37;97.23
70968;BME280;58629;48.808;8.820;2022-12-24T01:30:13;96732.81;;;9.27;97.93
70968;BME280;58629;48.808;8.820;2022-12-24T01:32:39;96731.34;;;9.26;98.33
70968;BME280;58629;48.808;8.820;2022-12-24T01:35:04;96736.06;;;9.15;99.74
70968;BME280;58629;48.808;8.820;2022-12-24T01:37:30;96728.34;;;9.05;99.56
70968;BME280;58629;48.808;8.820;2022-12-24T01:39:55;96726.91;;;9.00;100.00
70968;BME280;58629;48.808;8.820;2022-12-24T01:42:46;96742.91;;;8.93;100.00
70968;BME280;58629;48.808;8.820;2022-12-24T01:45:40;96754.31;;;8.87;100.00
70968;BME280;58629;48.808;8.820;2022-12-24T01:48:13;96763.72;;;8.88;100.00
70968;BME280;58629;48.808;8.820;2022-12-24T01:50:40;96758.50;;;8.84;100.00
70968;BME280;58629;48.808;8.820;2022-12-24T01:53:07;96767.94;;;8.85;100.00
70968;BME280;58629;48.808;8.820;2022-12-24T01:55:33;96759.31;;;8.81;100.00
70968;BME280;58629;48.808;8.820;2022-12-24T01:57:59;96766.34;;;8.88;100.00
70968;BME280;58629;48.808;8.820;2022-12-24T02:00:26;96776.19;;;8.87;100.00
70968;BME280;58629;48.808;8.820;2022-12-24T02:02:52;96769.81;;;8.85;100.00
70968;BME280;58629;48.808;8.820;2022-12-24T02:05:30;96771.69;;;8.84;100.00
70968;BME280;58629;48.808;8.820;2022-12-24T02:07:59;96781.84;;;8.86;100.00
70968;BME280;58629;48.808;8.820;2022-12-24T02:10:26;96769.81;;;8.85;100.00
70968;BME280;58629;48.808;8.820;2022-12-24T02:12:51;96761.50;;;8.86;99.15
70968;BME280;58629;48.808;8.820;2022-12-24T02:15:18;96781.84;;;8.86;98.99
70968;BME280;58629;48.808;8.820;2022-12-24T02:31:15;96782.72;;;8.56;100.00
70968;BME280;58629;48.808;8.820;2022-12-24T02:33:49;96759.56;;;8.67;98.24
70968;BME280;58629;48.808;8.820;2022-12-24T02:36:23;96762.97;;;8.64;99.69
70968;BME280;58629;48.808;8.820;2022-12-24T02:39:00;96769.84;;;8.58;99.95
70968;BME280;58629;48.808;8.820;2022-12-24T02:41:29;96784.28;;;8.53;99.27
70968;BME280;58629;48.808;8.820;2022-12-24T02:44:18;96782.47;;;8.47;98.73
70968;BME280;58629;48.808;8.820;2022-12-24T02:46:45;96790.84;;;8.42;99.14
70968;BME280;58629;48.808;8.820;2022-12-24T02:49:12;96799.28;;;8.33;99.01
70968;BME280;58629;48.808;8.820;2022-12-24T02:51:37;96789.97;;;8.25;99.33
70968;BME280;58629;48.808;8.820;2022-12-24T02:54:03;96794.84;;;8.27;98.77
70968;BME280;58629;48.808;8.820;2022-12-24T02:59:39;96800.88;;;8.27;98.01
70968;BME280;58629;48.808;8.820;2022-12-24T03:07:36;96804.31;;;8.21;98.04
70968;BME280;58629;48.808;8.820;2022-12-24T03:12:46;96798.25;;;8.24;97.93
70968;BME280;58629;48.808;8.820;2022-12-24T03:15:16;96791.88;;;8.21;98.60
70968;BME280;58629;48.808;8.820;2022-12-24T03:17:45;96808.44;;;8.22;98.65
70968;BME280;58629;48.808;8.820;2022-12-24T03:20:15;96826.00;;;8.35;97.11
70968;BME280;58629;48.808;8.820;2022-12-24T03:22:42;96832.75;;;8.36;97.66
70968;BME280;58629;48.808;8.820;2022-12-24T03:25:07;96826.34;;;8.37;97.82
70968;BME280;58629;48.808;8.820;2022-12-24T03:27:33;96816.53;;;8.38;98.01
70968;BME280;58629;48.808;8.820;2022-12-24T03:30:01;96816.50;;;8.41;97.23
70968;BME280;58629;48.808;8.820;2022-12-24T03:32:30;96828.94;;;8.41;97.39
70968;BME280;58629;48.808;8.820;2022-12-24T03:34:55;96820.25;;;8.40;97.89
70968;BME280;58629;48.808;8.820;2022-12-24T03:37:21;96827.44;;;8.40;97.93
70968;BME280;58629;48.808;8.820;2022-12-24T03:39:46;96844.75;;;8.41;98.39
70968;BME280;58629;48.808;8.820;2022-12-24T03:42:12;96849.28;;;8.40;98.60
70968;BME280;58629;48.808;8.820;2022-12-24T03:44:37;96853.47;;;8.38;99.04
70968;BME280;58629;48.808;8.820;2022-12-24T03:47:02;96855.03;;;8.35;99.74
70968;BME280;58629;48.808;8.820;2022-12-24T03:49:28;96856.91;;;8.35;100.00
70968;BME280;58629;48.808;8.820;2022-12-24T03:51:53;96856.97;;;8.31;100.00
70968;BME280;58629;48.808;8.820;2022-12-24T03:54:18;96846.06;;;8.29;100.00
70968;BME280;58629;48.808;8.820;2022-12-24T03:56:44;96861.13;;;8.29;100.00
70968;BME280;58629;48.808;8.820;2022-12-24T03:59:09;96859.66;;;8.28;100.00
70968;BME280;58629;48.808;8.820;2022-12-24T04:01:34;96861.53;;;8.27;100.00
70968;BME280;58629;48.808;8.820;2022-12-24T04:03:59;96854.03;;;8.26;100.00
70968;BME280;58629;48.808;8.820;2022-12-24T04:06:25;96859.66;;;8.24;100.00
70968;BME280;58629;48.808;8.820;2022-12-24T04:08:50;96870.97;;;8.25;100.00
70968;BME280;58629;48.808;8.820;2022-12-24T04:11:16;96868.72;;;8.23;100.00
70968;BME280;58629;48.808;8.820;2022-12-24T04:13:41;96861.22;;;8.22;100.00
70968;BME280;58629;48.808;8.820;2022-12-24T04:16:11;96860.09;;;8.19;100.00
70968;BME280;58629;48.808;8.820;2022-12-24T04:18:38;96876.69;;;8.16;100.00
70968;BME280;58629;48.808;8.820;2022-12-24T04:21:04;96877.50;;;8.13;100.00
70968;BME280;58629;48.808;8.820;2022-12-24T04:23:30;96867.34;;;8.12;100.00
70968;BME280;58629;48.808;8.820;2022-12-24T04:25:58;96862.47;;;8.10;100.00
70968;BME280;58629;48.808;8.820;2022-12-24T04:28:23;96863.63;;;8.09;100.00
70968;BME280;58629;48.808;8.820;2022-12-24T04:30:48;96863.25;;;8.07;100.00
70968;BME280;58629;48.808;8.820;2022-12-24T04:33:14;96867.78;;;8.07;100.00
70968;BME280;58629;48.808;8.820;2022-12-24T04:35:39;96860.28;;;8.05;100.00
70968;BME280;58629;48.808;8.820;2022-12-24T04:38:09;96870.47;;;8.03;100.00
70968;BME280;58629;48.808;8.820;2022-12-24T04:40:34;96882.53;;;8.01;100.00
70968;BME280;58629;48.808;8.820;2022-12-24T04:43:00;96885.94;;;8.01;100.00
70968;BME280;58629;48.808;8.820;2022-12-24T04:45:25;96888.97;;;8.00;100.00
70968;BME280;58629;48.808;8.820;2022-12-24T04:47:51;96904.78;;;8.00;100.00
70968;BME280;58629;48.808;8.820;2022-12-24T04:50:16;96897.25;;;8.02;100.00
70968;BME280;58629;48.808;8.820;2022-12-24T04:52:41;96900.63;;;8.02;100.00
70968;BME280;58629;48.808;8.820;2022-12-24T04:55:07;96906.63;;;8.03;100.00
70968;BME280;58629;48.808;8.820;2022-12-24T04:57:33;96910.03;;;8.03;100.00
70968;BME280;58629;48.808;8.820;2022-12-24T05:00:00;96915.28;;;8.03;100.00
70968;BME280;58629;48.808;8.820;2022-12-24T05:02:25;96916.44;;;8.02;100.00
70968;BME280;58629;48.808;8.820;2022-12-24T05:04:50;96917.19;;;8.03;100.00
70968;BME280;58629;48.808;8.820;2022-12-24T05:07:15;96904.41;;;8.01;100.00
70968;BME280;58629;48.808;8.820;2022-12-24T05:09:41;96900.66;;;7.99;100.00
70968;BME280;58629;48.808;8.820;2022-12-24T05:12:06;96917.97;;;8.00;100.00
70968;BME280;58629;48.808;8.820;2022-12-24T05:14:32;96927.00;;;7.99;100.00
70968;BME280;58629;48.808;8.820;2022-12-24T05:16:57;96913.13;;;7.95;100.00
70968;BME280;58629;48.808;8.820;2022-12-24T05:19:22;96909.34;;;7.96;100.00
70968;BME280;58629;48.808;8.820;2022-12-24T05:21:47;96907.50;;;7.93;100.00
70968;BME280;58629;48.808;8.820;2022-12-24T05:24:33;96908.66;;;7.92;100.00
70968;BME280;58629;48.808;8.820;2022-12-24T05:27:16;96903.63;;;8.01;96.40
70968;BME280;58629;48.808;8.820;2022-12-24T05:29:42;96901.00;;;8.01;96.69
70968;BME280;58629;48.808;8.820;2022-12-24T05:32:07;96899.91;;;7.98;96.90
70968;BME280;58629;48.808;8.820;2022-12-24T05:34:32;96901.00;;;8.01;96.05
70968;BME280;58629;48.808;8.820;2022-12-24T05:36:57;96901.41;;;7.99;95.70
70968;BME280;58629;48.808;8.820;2022-12-24T05:39:23;96893.50;;;7.99;96.00
70968;BME280;58629;48.808;8.820;2022-12-24T05:41:48;96898.34;;;8.04;94.11
70968;BME280;58629;48.808;8.820;2022-12-24T05:44:14;96905.47;;;8.07;94.30
70968;BME280;58629;48.808;8.820;2022-12-24T05:46:40;96908.84;;;8.08;93.54
70968;BME280;58629;48.808;8.820;2022-12-24T05:49:05;96904.00;;;8.03;93.79
70968;BME280;58629;48.808;8.820;2022-12-24T05:51:31;96900.38;;;7.89;93.83
70968;BME280;58629;48.808;8.820;2022-12-24T05:53:56;96907.53;;;7.89;94.42
70968;BME280;58629;48.808;8.820;2022-12-24T05:56:22;96904.94;;;7.85;94.84
70968;BME280;58629;48.808;8.820;2022-12-24T05:58:48;96899.94;;;7.95;93.33
70968;BME280;58629;48.808;8.820;2022-12-24T06:01:14;96901.50;;;7.92;94.16
70968;BME280;58629;48.808;8.820;2022-12-24T06:03:40;96900.00;;;7.91;93.57
70968;BME280;58629;48.808;8.820;2022-12-24T06:06:09;96912.06;;;7.88;93.65
70968;BME280;58629;48.808;8.820;2022-12-24T06:08:35;96922.59;;;7.88;93.33
70968;BME280;58629;48.808;8.820;2022-12-24T06:11:03;96926.78;;;7.86;93.63
70968;BME280;58629;48.808;8.820;2022-12-24T06:13:29;96920.81;;;7.82;93.63
70968;BME280;58629;48.808;8.820;2022-12-24T06:15:56;96915.56;;;7.78;94.52
70968;BME280;58629;48.808;8.820;2022-12-24T06:18:22;96914.16;;;7.70;94.76
70968;BME280;58629;48.808;8.820;2022-12-24T06:20:52;96917.19;;;7.65;94.56
70968;BME280;58629;48.808;8.820;2022-12-24T06:23:19;96916.09;;;7.63;94.98
70968;BME280;58629;48.808;8.820;2022-12-24T06:25:45;96930.41;;;7.62;94.96
70968;BME280;58629;48.808;8.820;2022-12-24T06:28:10;96933.44;;;7.60;95.73
70968;BME280;58629;48.808;8.820;2022-12-24T06:30:35;96931.56;;;7.57;95.81
70968;BME280;58629;48.808;8.820;2022-12-24T06:33:01;96935.72;;;7.55;96.52
70968;BME280;58629;48.808;8.820;2022-12-24T06:35:26;96938.72;;;7.57;96.64
70968;BME280;58629;48.808;8.820;2022-12-24T06:37:51;96950.81;;;7.54;97.65
70968;BME280;58629;48.808;8.820;2022-12-24T06:40:16;96940.63;;;7.56;97.50
70968;BME280;58629;48.808;8.820;2022-12-24T06:42:42;96945.13;;;7.59;97.98
70968;BME280;58629;48.808;8.820;2022-12-24T06:45:07;96942.09;;;7.61;97.33
70968;BME280;58629;48.808;8.820;2022-12-24T06:47:33;96940.97;;;7.62;97.05
70968;BME280;58629;48.808;8.820;2022-12-24T06:49:58;96953.41;;;7.58;97.42
70968;BME280;58629;48.808;8.820;2022-12-24T06:52:23;96960.91;;;7.59;96.87
70968;BME280;58629;48.808;8.820;2022-12-24T06:54:49;96963.16;;;7.61;96.81
70968;BME280;58629;48.808;8.820;2022-12-24T06:57:14;96954.50;;;7.64;96.82
70968;BME280;58629;48.808;8.820;2022-12-24T06:59:39;96968.44;;;7.64;96.82
70968;BME280;58629;48.808;8.820;2022-12-24T07:02:04;96963.91;;;7.61;96.33
70968;BME280;58629;48.808;8.820;2022-12-24T07:04:30;96966.19;;;7.59;96.52
70968;BME280;58629;48.808;8.820;2022-12-24T07:06:55;96982.03;;;7.56;96.89
70968;BME280;58629;48.808;8.820;2022-12-24T07:09:21;96976.41;;;7.54;96.49
70968;BME280;58629;48.808;8.820;2022-12-24T07:11:46;96994.84;;;7.54;96.78
70968;BME280;58629;48.808;8.820;2022-12-24T07:14:11;96983.16;;;7.55;97.10
70968;BME280;58629;48.808;8.820;2022-12-24T07:16:36;96991.44;;;7.57;96.96
70968;BME280;58629;48.808;8.820;2022-12-24T07:19:02;96999.34;;;7.57;97.02
70968;BME280;58629;48.808;8.820;2022-12-24T07:21:27;97000.88;;;7.54;96.89
70968;BME280;58629;48.808;8.820;2022-12-24T07:23:52;97002.28;;;7.66;96.22
70968;BME280;58629;48.808;8.820;2022-12-24T07:26:17;97000.00;;;7.68;96.34
70968;BME280;58629;48.808;8.820;2022-12-24T07:28:43;97012.44;;;7.67;96.00
70968;BME280;58629;48.808;8.820;2022-12-24T07:31:08;97020.69;;;7.69;96.20
70968;BME280;58629;48.808;8.820;2022-12-24T07:33:33;97013.50;;;7.73;95.82
70968;BME280;58629;48.808;8.820;2022-12-24T07:38:24;97012.72;;;7.76;95.39
70968;BME280;58629;48.808;8.820;2022-12-24T07:40:49;97009.34;;;7.76;95.32
70968;BME280;58629;48.808;8.820;2022-12-24T07:43:14;97018.72;;;7.80;94.39
70968;BME280;58629;48.808;8.820;2022-12-24T07:45:40;97014.50;;;7.86;94.39
70968;BME280;58629;48.808;8.820;2022-12-24T07:48:05;97022.78;;;7.88;94.77
70968;BME280;58629;48.808;8.820;2022-12-24T07:50:30;97022.06;;;7.88;95.05
70968;BME280;58629;48.808;8.820;2022-12-24T07:52:55;97013.41;;;7.87;95.93
70968;BME280;58629;48.808;8.820;2022-12-24T07:55:21;97016.44;;;7.86;97.26
70968;BME280;58629;48.808;8.820;2022-12-24T07:57:46;97023.63;;;7.82;97.62
70968;BME280;58629;48.808;8.820;2022-12-24T08:00:11;97028.84;;;7.85;97.21
70968;BME280;58629;48.808;8.820;2022-12-24T08:02:37;97032.22;;;7.89;94.98
70968;BME280;58629;48.808;8.820;2022-12-24T08:05:03;97039.34;;;7.89;95.47
70968;BME280;58629;48.808;8.820;2022-12-24T08:07:28;97034.44;;;7.91;96.17
70968;BME280;58629;48.808;8.820;2022-12-24T08:09:53;97050.69;;;7.86;95.95
70968;BME280;58629;48.808;8.820;2022-12-24T08:12:18;97050.69;;;7.86;96.47
70968;BME280;58629;48.808;8.820;2022-12-24T08:14:44;97045.44;;;7.82;96.99
70968;BME280;58629;48.808;8.820;2022-12-24T08:17:09;97049.22;;;7.81;97.64
70968;BME280;58629;48.808;8.820;2022-12-24T08:19:34;97055.63;;;7.80;97.65
70968;BME280;58629;48.808;8.820;2022-12-24T08:21:59;97059.44;;;7.76;97.27
70968;BME280;58629;48.808;8.820;2022-12-24T08:24:25;97063.56;;;7.77;97.28
70968;BME280;58629;48.808;8.820;2022-12-24T08:26:50;97065.81;;;7.78;96.59
70968;BME280;58629;48.808;8.820;2022-12-24T08:29:15;97063.16;;;7.82;96.22
70968;BME280;58629;48.808;8.820;2022-12-24T08:31:41;97063.84;;;7.89;95.31
70968;BME280;58629;48.808;8.820;2022-12-24T08:34:06;97055.53;;;7.91;95.56
70968;BME280;58629;48.808;8.820;2022-12-24T08:36:32;97060.03;;;7.94;95.25
70968;BME280;58629;48.808;8.820;2022-12-24T08:38:58;97064.13;;;7.99;95.15
70968;BME280;58629;48.808;8.820;2022-12-24T08:41:27;97070.13;;;8.03;93.80
70968;BME280;58629;48.808;8.820;2022-12-24T08:43:52;97070.47;;;8.05;93.48
70968;BME280;58629;48.808;8.820;2022-12-24T08:46:18;97074.22;;;8.07;93.80
70968;BME280;58629;48.808;8.820;2022-12-24T08:48:43;97075.31;;;8.13;92.69
70968;BME280;58629;48.808;8.820;2022-12-24T08:51:10;97080.94;;;8.15;93.14
70968;BME280;58629;48.808;8.820;2022-12-24T08:53:36;97082.06;;;8.18;92.81
70968;BME280;58629;48.808;8.820;2022-12-24T08:56:03;97076.75;;;8.21;92.69
70968;BME280;58629;48.808;8.820;2022-12-24T08:58:30;97069.59;;;8.22;92.60
70968;BME280;58629;48.808;8.820;2022-12-24T09:00:56;97072.22;;;8.22;92.39
70968;BME280;58629;48.808;8.820;2022-12-24T09:03:21;97076.34;;;8.26;92.70
70968;BME280;58629;48.808;8.820;2022-12-24T09:05:47;97091.72;;;8.35;91.31
70968;BME280;58629;48.808;8.820;2022-12-24T09:08:12;97093.91;;;8.43;92.01
70968;BME280;58629;48.808;8.820;2022-12-24T09:10:37;97098.34;;;8.50;91.05
70968;BME280;58629;48.808;8.820;2022-12-24T09:13:02;97102.41;;;8.58;92.49
70968;BME280;58629;48.808;8.820;2022-12-24T09:15:28;97104.63;;;8.63;91.51
70968;BME280;58629;48.808;8.820;2022-12-24T09:17:53;97108.16;;;8.87;95.22
70968;BME280;58629;48.808;8.820;2022-12-24T09:20:19;97109.28;;;8.86;90.20
70968;BME280;58629;48.808;8.820;2022-12-24T09:22:44;97110.13;;;9.09;93.35
70968;BME280;58629;48.808;8.820;2022-12-24T09:25:09;97115.28;;;9.50;96.84
70968;BME280;58629;48.808;8.820;2022-12-24T09:27:35;97116.06;;;9.74;95.43
70968;BME280;58629;48.808;8.820;2022-12-24T09:30:01;97124.22;;;10.09;93.77
70968;BME280;58629;48.808;8.820;2022-12-24T09:32:26;97120.88;;;10.28;89.88
70968;BME280;58629;48.808;8.820;2022-12-24T09:34:52;97113.16;;;10.61;91.64
70968;BME280;58629;48.808;8.820;2022-12-24T09:37:17;97125.19;;;10.85;89.67
70968;BME280;58629;48.808;8.820;2022-12-24T09:39:43;97128.25;;;11.03;88.75
70968;BME280;58629;48.808;8.820;2022-12-24T09:42:22;97128.22;;;11.22;84.23
70968;BME280;58629;48.808;8.820;2022-12-24T09:50:00;97119.28;;;11.52;84.48
70968;BME280;58629;48.808;8.820;2022-12-24T09:52:35;97115.50;;;11.69;84.29
70968;BME280;58629;48.808;8.820;2022-12-24T09:55:27;97115.38;;;11.76;81.80
70968;BME280;58629;48.808;8.820;2022-12-24T09:57:55;97108.88;;;11.77;81.67
70968;BME280;58629;48.808;8.820;2022-12-24T10:00:26;97112.38;;;11.39;79.62
70968;BME280;58629;48.808;8.820;2022-12-24T10:02:52;97111.56;;;11.22;80.99
70968;BME280;58629;48.808;8.820;2022-12-24T10:05:27;97111.69;;;10.99;77.79
70968;BME280;58629;48.808;8.820;2022-12-24T10:16:01;97118.97;;;11.30;80.52
70968;BME280;58629;48.808;8.820;2022-12-24T10:27:23;97142.81;;;11.50;79.42
70968;BME280;58629;48.808;8.820;2022-12-24T10:29:57;97149.59;;;11.51;81.11
70968;BME280;58629;48.808;8.820;2022-12-24T10:32:28;97146.72;;;11.26;78.29
70968;BME280;58629;48.808;8.820;2022-12-24T10:34:59;97140.59;;;11.09;80.71
70968;BME280;58629;48.808;8.820;2022-12-24T10:37:28;97131.75;;;11.16;81.73
70968;BME280;58629;48.808;8.820;2022-12-24T10:39:54;97137.91;;;10.93;78.75
70968;BME280;58629;48.808;8.820;2022-12-24T10:42:24;97137.47;;;10.75;79.39
70968;BME280;58629;48.808;8.820;2022-12-24T10:44:55;97136.59;;;10.82;82.29
70968;BME280;58629;48.808;8.820;2022-12-24T10:47:24;97141.28;;;10.94;81.93
70968;BME280;58629;48.808;8.820;2022-12-24T10:49:59;97145.34;;;10.79;79.88
70968;BME280;58629;48.808;8.820;2022-12-24T10:52:28;97149.81;;;10.82;82.38
70968;BME280;58629;48.808;8.820;2022-12-24T10:57:43;97133.06;;;11.08;85.21
70968;BME280;58629;48.808;8.820;2022-12-24T11:00:22;97138.75;;;11.26;84.47
70968;BME280;58629;48.808;8.820;2022-12-24T11:03:05;97131.94;;;11.45;83.87
70968;BME280;58629;48.808;8.820;2022-12-24T11:05:35;97124.59;;;11.52;83.27
70968;BME280;58629;48.808;8.820;2022-12-24T11:08:05;97133.75;;;11.48;80.24
70968;BME280;58629;48.808;8.820;2022-12-24T11:10:32;97137.00;;;11.19;80.78
70968;BME280;58629;48.808;8.820;2022-12-24T11:12:59;97131.50;;;11.10;80.70
70968;BME280;58629;48.808;8.820;2022-12-24T11:15:29;97145.16;;;11.09;84.10
70968;BME280;58629;48.808;8.820;2022-12-24T11:18:00;97144.53;;;10.82;80.46
70968;BME280;58629;48.808;8.820;2022-12-24T11:20:30;97145.28;;;10.82;80.79
70968;BME280;58629;48.808;8.820;2022-12-24T11:22:56;97144.41;;;10.69;80.80
70968;BME280;58629;48.808;8.820;2022-12-24T11:25:30;97148.81;;;10.76;83.58
70968;BME280;58629;48.808;8.820;2022-12-24T11:28:28;97144.50;;;10.62;82.79
70968;BME280;58629;48.808;8.820;2022-12-24T11:33:24;97148.75;;;10.60;81.36
70968;BME280;58629;48.808;8.820;2022-12-24T11:36:00;97159.16;;;10.47;79.79
70968;BME280;58629;48.808;8.820;2022-12-24T11:38:28;97148.47;;;10.31;82.73
70968;BME280;58629;48.808;8.820;2022-12-24T11:41:12;97151.78;;;10.35;82.02
70968;BME280;58629;48.808;8.820;2022-12-24T11:43:42;97152.91;;;10.37;82.50
70968;BME280;58629;48.808;8.820;2022-12-24T11:46:20;97164.56;;;10.17;80.56
70968;BME280;58629;48.808;8.820;2022-12-24T11:48:47;97167.75;;;10.05;83.56
70968;BME280;58629;48.808;8.820;2022-12-24T11:51:24;97163.47;;;9.88;84.60
70968;BME280;58629;48.808;8.820;2022-12-24T11:54:05;97150.13;;;9.95;84.87
70968;BME280;58629;48.808;8.820;2022-12-24T11:56:43;97148.19;;;9.99;84.82
70968;BME280;58629;48.808;8.820;2022-12-24T11:59:25;97158.13;;;9.91;85.45
70968;BME280;58629;48.808;8.820;2022-12-24T12:02:30;97155.06;;;9.93;87.05
70968;BME280;58629;48.808;8.820;2022-12-24T12:04:54;97150.94;;;9.92;87.85
70968;BME280;58629;48.808;8.820;2022-12-24T12:07:25;97152.88;;;9.88;86.65
70968;BME280;58629;48.808;8.820;2022-12-24T12:09:56;97143.22;;;10.01;86.79
70968;BME280;58629;48.808;8.820;2022-12-24T12:12:26;97142.09;;;10.02;86.05
70968;BME280;58629;48.808;8.820;2022-12-24T12:15:11;97132.25;;;10.02;85.04
70968;BME280;58629;48.808;8.820;2022-12-24T12:17:48;97129.50;;;10.09;87.83
70968;BME280;58629;48.808;8.820;2022-12-24T12:20:21;97127.78;;;10.22;84.31
70968;BME280;58629;48.808;8.820;2022-12-24T12:22:57;97130.69;;;10.31;84.46
70968;BME280;58629;48.808;8.820;2022-12-24T12:25:30;97137.00;;;10.37;83.93
70968;BME280;58629;48.808;8.820;2022-12-24T12:27:57;97149.50;;;10.37;82.69
70968;BME280;58629;48.808;8.820;2022-12-24T12:30:25;97145.34;;;10.36;83.47
70968;BME280;58629;48.808;8.820;2022-12-24T12:35:45;97161.34;;;10.29;83.25
70968;BME280;58629;48.808;8.820;2022-12-24T12:38:17;97155.06;;;10.19;85.12
70968;BME280;58629;48.808;8.820;2022-12-24T12:44:02;97160.97;;;10.04;83.66
70968;BME280;58629;48.808;8.820;2022-12-24T12:55:38;97148.09;;;10.06;84.85
70968;BME280;58629;48.808;8.820;2022-12-24T12:58:36;97145.88;;;10.01;83.31
70968;BME280;58629;48.808;8.820;2022-12-24T13:01:10;97148.28;;;9.92;82.78
70968;BME280;58629;48.808;8.820;2022-12-24T13:04:01;97146.84;;;9.87;82.79
70968;BME280;58629;48.808;8.820;2022-12-24T13:06:45;97135.91;;;9.85;83.55
70968;BME280;58629;48.808;8.820;2022-12-24T13:20:09;97135.13;;;9.88;82.35
70968;BME280;58629;48.808;8.820;2022-12-24T13:22:36;97130.56;;;9.89;81.54
70968;BME280;58629;48.808;8.820;2022-12-24T13:25:01;97139.25;;;9.89;80.24
70968;BME280;58629;48.808;8.820;2022-12-24T13:27:28;97144.41;;;10.00;80.53
70968;BME280;58629;48.808;8.820;2022-12-24T13:29:56;97146.63;;;10.01;80.23
70968;BME280;58629;48.808;8.820;2022-12-24T13:50:50;97141.69;;;10.03;80.66
70968;BME280;58629;48.808;8.820;2022-12-24T13:53:41;97141.59;;;10.10;80.43
70968;BME280;58629;48.808;8.820;2022-12-24T13:56:19;97134.59;;;10.23;79.05
70968;BME280;58629;48.808;8.820;2022-12-24T13:58:52;97134.25;;;10.21;79.06
70968;BME280;58629;48.808;8.820;2022-12-24T14:01:22;97125.50;;;10.24;79.12
70968;BME280;58629;48.808;8.820;2022-12-24T14:04:00;97132.00;;;10.20;79.05
70968;BME280;58629;48.808;8.820;2022-12-24T14:06:36;97129.66;;;10.25;80.02
70968;BME280;58629;48.808;8.820;2022-12-24T14:14:31;97115.53;;;10.55;80.34
70968;BME280;58629;48.808;8.820;2022-12-24T14:16:58;97106.72;;;10.62;80.13
70968;BME280;58629;48.808;8.820;2022-12-24T14:19:28;97118.53;;;10.77;82.94
70968;BME280;58629;48.808;8.820;2022-12-24T14:22:19;97124.59;;;10.77;82.57
70968;BME280;58629;48.808;8.820;2022-12-24T14:24:55;97121.72;;;10.68;79.04
70968;BME280;58629;48.808;8.820;2022-12-24T14:27:42;97133.06;;;10.88;85.79
70968;BME280;58629;48.808;8.820;2022-12-24T14:30:17;97123.00;;;10.80;83.41
70968;BME280;58629;48.808;8.820;2022-12-24T14:32:43;97122.63;;;10.81;80.38
70968;BME280;58629;48.808;8.820;2022-12-24T14:37:38;97117.31;;;10.62;81.49
70968;BME280;58629;48.808;8.820;2022-12-24T14:40:05;97120.81;;;10.55;81.74
70968;BME280;58629;48.808;8.820;2022-12-24T14:43:07;97118.16;;;10.55;81.00
70968;BME280;58629;48.808;8.820;2022-12-24T14:45:42;97134.66;;;10.43;78.67
70968;BME280;58629;48.808;8.820;2022-12-24T14:48:30;97142.06;;;10.28;78.92
70968;BME280;58629;48.808;8.820;2022-12-24T14:51:13;97149.88;;;10.12;79.86
70968;BME280;58629;48.808;8.820;2022-12-24T14:56:20;97157.13;;;9.82;81.86
70968;BME280;58629;48.808;8.820;2022-12-24T14:58:47;97158.47;;;9.67;82.02
70968;BME280;58629;48.808;8.820;2022-12-24T15:01:31;97161.84;;;9.67;80.96
70968;BME280;58629;48.808;8.820;2022-12-24T15:06:37;97137.72;;;9.65;82.04